.
WxDataArchive / Data Records for 2005-12-25
2005-12-24 December 2005 2005-12-26

Data Records for Sunday, 25 December 2005

Time	Temp	Chill	HIndex	Humid	Dewpt	 Wind 	HiWind	WindDir	Rain 	Barom 
-----	----	-----	------	-----	-----	------	------	-------	-----	----- 
00:00	34.6	34.6	34.6	95	33.3	0	1	90	0.00	29.647 
00:05	34.6	34.6	34.6	95	33.3	0	1	90	0.00	29.647 
00:10	34.6	34.6	34.6	95	33.3	0	1	90	0.00	29.647 
00:15	34.6	34.6	34.6	95	33.3	0	1	90	0.00	29.637 
00:20	34.7	34.7	34.7	95	33.4	0	2	90	0.00	29.637 
00:25	34.7	34.7	34.7	95	33.4	0	2	90	0.00	29.637 
00:30	34.6	34.6	34.6	95	33.3	0	1	90	0.00	29.628 
00:35	34.6	34.6	34.6	95	33.3	0	1	90	0.00	29.628 
00:40	34.6	34.6	34.6	95	33.3	0	0	---	0.00	29.628 
00:45	34.6	34.6	34.6	95	33.3	0	1	90	0.00	29.628 
00:50	34.6	34.6	34.6	95	33.3	0	0	---	0.00	29.628 
00:55	34.6	34.6	34.6	95	33.3	0	0	---	0.00	29.628 
01:00	34.6	34.6	34.6	95	33.3	0	0	---	0.00	29.625 
01:05	34.6	34.6	34.6	95	33.3	0	1	90	0.00	29.625 
01:10	34.6	34.6	34.6	95	33.3	1	2	90	0.00	29.625 
01:15	34.6	34.6	34.6	95	33.3	0	2	90	0.00	29.615 
01:20	34.4	34.4	34.4	95	33.1	0	0	---	0.00	29.615 
01:25	34.4	34.4	34.4	95	33.1	0	1	90	0.00	29.615 
01:30	34.4	34.4	34.4	95	33.1	0	0	---	0.00	29.616 
01:35	34.3	34.3	34.3	95	33.0	0	0	---	0.00	29.616 
01:40	34.3	34.3	34.3	95	33.0	0	1	90	0.00	29.616 
01:45	34.4	34.4	34.4	95	33.1	0	1	90	0.00	29.607 
01:50	34.4	34.4	34.4	95	33.1	0	0	---	0.00	29.607 
01:55	34.4	34.4	34.4	95	33.1	0	1	90	0.00	29.607 
02:00	34.6	34.6	34.6	95	33.3	0	1	90	0.00	29.606 
02:05	34.6	34.6	34.6	95	33.3	0	1	90	0.00	29.606 
02:10	34.7	34.7	34.7	95	33.4	0	2	90	0.00	29.606 
02:15	34.7	34.7	34.7	95	33.4	0	2	90	0.00	29.606 
02:20	34.7	34.7	34.7	95	33.4	0	1	90	0.00	29.606 
02:25	34.7	34.7	34.7	95	33.4	0	2	90	0.00	29.606 
02:30	34.9	34.9	34.9	95	33.6	0	1	90	0.00	29.608 
02:35	34.9	34.9	34.9	95	33.6	0	2	90	0.00	29.608 
02:40	34.7	34.7	34.7	95	33.4	0	2	90	0.00	29.608 
02:45	34.7	34.7	34.7	95	33.4	0	2	90	0.00	29.602 
02:50	34.7	34.7	34.7	95	33.4	0	1	90	0.00	29.602 
02:55	34.7	34.7	34.7	95	33.4	0	0	---	0.00	29.602 
03:00	34.6	34.6	34.6	95	33.3	0	1	90	0.00	29.599 
03:05	34.6	34.6	34.6	95	33.3	0	1	90	0.00	29.599 
03:10	34.6	34.6	34.6	95	33.3	0	1	90	0.00	29.599 
03:15	34.6	34.6	34.6	95	33.3	0	1	90	0.00	29.594 
03:20	34.6	34.6	34.6	95	33.3	0	2	90	0.00	29.594 
03:25	34.6	34.6	34.6	95	33.3	0	2	90	0.00	29.594 
03:30	34.6	34.6	34.6	95	33.3	0	0	---	0.00	29.589 
03:35	34.6	34.6	34.6	95	33.3	0	1	90	0.00	29.589 
03:40	34.6	34.6	34.6	95	33.3	0	1	90	0.00	29.589 
03:45	34.6	34.6	34.6	95	33.3	0	1	90	0.00	29.578 
03:50	34.4	34.4	34.4	95	33.1	0	0	---	0.00	29.578 
03:55	34.4	34.4	34.4	95	33.1	0	2	90	0.00	29.578 
04:00	34.4	34.4	34.4	95	33.1	0	1	90	0.00	29.565 
04:05	34.4	34.4	34.4	95	33.1	0	1	90	0.00	29.565 
04:10	34.4	34.4	34.4	95	33.1	0	0	---	0.00	29.565 
04:15	34.4	34.4	34.4	95	33.1	0	0	---	0.00	29.576 
04:20	34.4	34.4	34.4	95	33.1	0	0	---	0.00	29.576 
04:25	34.4	34.4	34.4	95	33.1	0	1	90	0.00	29.576 
04:30	34.4	34.4	34.4	95	33.1	1	2	90	0.00	29.580 
04:35	34.6	34.6	34.6	95	33.3	1	2	90	0.00	29.580 
04:40	34.4	34.4	34.4	95	33.1	0	2	90	0.00	29.580 
04:45	34.4	34.4	34.4	95	33.1	0	2	90	0.00	29.583 
04:50	34.3	34.3	34.3	95	33.0	0	1	90	0.00	29.583 
04:55	34.3	34.3	34.3	95	33.0	0	1	90	0.00	29.583 
05:00	34.1	34.1	34.1	95	32.8	0	2	90	0.00	29.573 
05:05	34.1	34.1	34.1	95	32.8	0	2	90	0.00	29.573 
05:10	34.0	34.0	34.0	95	32.7	0	2	90	0.00	29.573 
05:15	34.0	34.0	34.0	95	32.7	0	3	90	0.00	29.567 
05:20	33.8	33.8	33.8	95	32.5	0	1	90	0.00	29.567 
05:25	33.8	33.8	33.8	95	32.5	0	1	90	0.00	29.567 
05:30	33.8	33.8	33.8	95	32.5	0	1	90	0.00	29.553 
05:35	33.8	33.8	33.8	95	32.5	0	1	90	0.00	29.553 
05:40	33.8	33.8	33.8	95	32.5	0	3	68	0.00	29.553 
05:45	33.8	33.8	33.8	95	32.5	0	1	68	0.00	29.555 
05:50	33.8	33.8	33.8	95	32.5	0	1	68	0.00	29.555 
05:55	34.0	34.0	34.0	95	32.7	0	1	68	0.00	29.555 
06:00	34.0	34.0	34.0	95	32.7	0	1	68	0.00	29.552 
06:05	34.0	34.0	34.0	95	32.7	0	2	68	0.00	29.552 
06:10	34.1	34.1	34.1	95	32.8	0	2	68	0.00	29.552 
06:15	34.1	34.1	34.1	96	33.1	0	2	45	0.00	29.535 
06:20	34.1	34.1	34.1	96	33.1	0	1	45	0.00	29.535 
06:25	34.1	34.1	34.1	96	33.1	0	2	338	0.00	29.535 
06:30	34.1	34.1	34.1	96	33.1	0	1	338	0.01	29.536 
06:35	34.3	34.3	34.3	96	33.3	0	1	338	0.00	29.536 
06:40	34.3	34.3	34.3	96	33.3	0	1	338	0.00	29.536 
06:45	34.1	34.1	34.1	95	32.8	0	1	338	0.00	29.535 
06:50	34.3	34.3	34.3	96	33.3	0	1	338	0.00	29.535 
06:55	34.3	34.3	34.3	96	33.3	0	2	338	0.00	29.535 
07:00	34.4	34.4	34.4	96	33.4	0	2	338	0.00	29.531 
07:05	34.4	34.4	34.4	96	33.4	0	1	338	0.00	29.531 
07:10	34.4	34.4	34.4	96	33.4	0	1	338	0.00	29.531 
07:15	34.3	34.3	34.3	96	33.3	1	2	338	0.00	29.539 
07:20	34.3	34.3	34.3	96	33.3	0	2	68	0.00	29.539 
07:25	34.3	34.3	34.3	96	33.3	0	2	68	0.00	29.539 
07:30	34.3	34.3	34.3	96	33.3	0	1	68	0.00	29.547 
07:35	34.3	34.3	34.3	96	33.3	0	2	68	0.00	29.547 
07:40	34.3	34.3	34.3	96	33.3	0	1	68	0.00	29.547 
07:45	34.3	34.3	34.3	96	33.3	0	0	---	0.00	29.544 
07:50	34.3	34.3	34.3	96	33.3	0	1	68	0.01	29.544 
07:55	34.3	34.3	34.3	96	33.3	0	1	68	0.00	29.544 
08:00	34.3	34.3	34.3	96	33.3	0	1	68	0.00	29.537 
08:05	34.1	34.1	34.1	96	33.1	0	1	68	0.00	29.537 
08:10	34.1	34.1	34.1	96	33.1	0	1	68	0.00	29.537 
08:15	34.1	34.1	34.1	96	33.1	0	1	68	0.00	29.536 
08:20	34.3	34.3	34.3	96	33.3	0	2	68	0.00	29.536 
08:25	34.3	34.3	34.3	96	33.3	0	1	0	0.00	29.536 
08:30	34.3	34.3	34.3	96	33.3	0	1	0	0.00	29.535 
08:35	34.3	34.3	34.3	96	33.3	0	2	0	0.00	29.535 
08:40	34.4	34.4	34.4	96	33.4	0	1	0	0.00	29.535 
08:45	34.4	34.4	34.4	96	33.4	0	1	0	0.00	29.536 
08:50	34.4	34.4	34.4	96	33.4	0	1	0	0.00	29.536 
08:55	34.4	34.4	34.4	96	33.4	0	1	0	0.00	29.536 
09:00	34.6	34.6	34.6	96	33.6	0	1	0	0.00	29.533 
09:05	34.6	34.6	34.6	96	33.6	0	2	0	0.00	29.533 
09:10	34.6	34.6	34.6	96	33.6	0	3	0	0.00	29.533 
09:15	34.6	34.6	34.6	96	33.6	0	2	0	0.00	29.533 
09:20	34.6	34.6	34.6	96	33.6	0	1	0	0.00	29.533 
09:25	34.6	34.6	34.6	96	33.6	0	1	0	0.01	29.533 
09:30	34.7	34.7	34.7	96	33.7	0	1	0	0.00	29.536 
09:35	34.7	34.7	34.7	96	33.7	0	2	0	0.00	29.536 
09:40	34.7	34.7	34.7	96	33.7	0	2	0	0.01	29.536 
09:45	34.9	34.9	34.9	96	33.9	0	2	0	0.01	29.535 
09:50	34.9	34.9	34.9	96	33.9	1	3	0	0.00	29.535 
09:55	34.9	34.9	34.9	96	33.9	0	1	0	0.01	29.535 
10:00	35.0	35.0	35.0	96	34.0	0	2	0	0.01	29.536 
10:05	35.2	35.2	35.2	96	34.2	0	2	22	0.00	29.536 
10:10	35.2	35.2	35.2	96	34.2	0	3	0	0.01	29.536 
10:15	35.3	35.3	35.3	96	34.3	1	3	22	0.00	29.537 
10:20	35.3	35.3	35.3	96	34.3	1	2	22	0.00	29.537 
10:25	35.3	35.3	35.3	96	34.3	0	2	22	0.00	29.537 
10:30	35.5	35.5	35.5	96	34.5	0	2	22	0.00	29.535 
10:35	35.5	35.5	35.5	96	34.5	1	2	22	0.01	29.535 
10:40	35.5	35.5	35.5	96	34.5	1	2	22	0.00	29.535 
10:45	35.5	35.5	35.5	96	34.5	1	4	338	0.00	29.538 
10:50	35.5	35.5	35.5	96	34.5	0	3	0	0.00	29.538 
10:55	35.5	35.5	35.5	96	34.5	1	3	0	0.00	29.538 
11:00	35.5	35.5	35.5	96	34.5	1	3	338	0.01	29.532 
11:05	35.5	35.5	35.5	96	34.5	1	3	0	0.00	29.532 
11:10	35.5	35.5	35.5	96	34.5	1	3	45	0.00	29.532 
11:15	35.5	35.5	35.5	96	34.5	1	4	22	0.01	29.521 
11:20	35.5	35.5	35.5	96	34.5	1	3	270	0.00	29.521 
11:25	35.5	35.5	35.5	96	34.5	1	4	315	0.00	29.521 
11:30	35.5	35.5	35.5	96	34.5	1	3	338	0.00	29.517 
11:35	35.5	35.5	35.5	96	34.5	1	3	22	0.00	29.517 
11:40	35.5	35.5	35.5	96	34.5	1	3	22	0.00	29.517 
11:45	35.5	35.5	35.5	96	34.5	1	2	338	0.01	29.506 
11:50	35.5	35.5	35.5	96	34.5	1	3	22	0.00	29.506 
11:55	35.5	35.5	35.5	96	34.5	1	3	0	0.00	29.506 
12:00	35.5	35.5	35.5	96	34.5	1	3	338	0.00	29.501 
12:05	35.5	35.5	35.5	96	34.5	1	4	338	0.00	29.501 
12:10	35.5	35.5	35.5	96	34.5	1	3	0	0.01	29.501 
12:15	35.6	35.6	35.6	96	34.6	1	4	338	0.00	29.488 
12:20	35.5	35.5	35.5	96	34.5	1	3	22	0.00	29.488 
12:25	35.5	35.5	35.5	96	34.5	1	4	338	0.00	29.488 
12:30	35.6	35.6	35.6	96	34.6	1	3	338	0.01	29.483 
12:35	35.6	35.6	35.6	96	34.6	2	4	338	0.00	29.483 
12:40	35.5	35.5	35.5	95	34.2	1	4	338	0.00	29.483 
12:45	35.5	35.5	35.5	96	34.5	2	4	22	0.00	29.477 
12:50	35.5	35.5	35.5	95	34.2	1	4	315	0.01	29.477 
12:55	35.5	35.5	35.5	95	34.2	1	2	338	0.00	29.477 
13:00	35.5	35.5	35.5	95	34.2	0	2	270	0.00	29.472 
13:05	35.5	35.5	35.5	95	34.2	1	3	270	0.01	29.472 
13:10	35.5	35.5	35.5	95	34.2	1	2	315	0.00	29.472 
13:15	35.5	35.5	35.5	95	34.2	1	3	338	0.00	29.471 
13:20	35.5	35.5	35.5	95	34.2	0	1	338	0.01	29.471 
13:25	35.5	35.5	35.5	95	34.2	1	3	315	0.00	29.471 
13:30	35.5	35.5	35.5	95	34.2	1	4	338	0.00	29.468 
13:35	35.5	35.5	35.5	95	34.2	1	4	292	0.01	29.468 
13:40	35.3	35.3	35.3	95	34.0	1	3	338	0.00	29.468 
13:45	35.3	35.3	35.3	95	34.0	1	3	22	0.01	29.465 
13:50	35.3	35.3	35.3	95	34.0	1	2	315	0.00	29.465 
13:55	35.3	35.3	35.3	95	34.0	1	4	315	0.00	29.465 
14:00	35.3	35.3	35.3	95	34.0	0	2	292	0.00	29.463 
14:05	35.3	35.3	35.3	95	34.0	1	3	338	0.01	29.463 
14:10	35.3	35.3	35.3	95	34.0	1	6	338	0.00	29.463 
14:15	35.3	35.3	35.3	94	33.7	1	3	338	0.00	29.463 
14:20	35.3	35.3	35.3	94	33.7	1	2	338	0.01	29.463 
14:25	35.3	35.3	35.3	94	33.7	1	4	68	0.00	29.463 
14:30	35.2	35.2	35.2	94	33.6	1	4	315	0.00	29.465 
14:35	35.2	35.2	35.2	94	33.6	1	2	315	0.01	29.465 
14:40	35.0	35.0	35.0	94	33.5	1	3	315	0.00	29.465 
14:45	35.0	35.0	35.0	94	33.5	1	2	315	0.00	29.470 
14:50	34.9	34.9	34.9	94	33.4	1	3	292	0.01	29.470 
14:55	34.9	34.9	34.9	94	33.4	0	2	292	0.00	29.470 
15:00	34.7	34.7	34.7	94	33.2	1	2	292	0.01	29.473 
15:05	34.4	34.4	34.4	94	32.9	1	2	292	0.00	29.473 
15:10	34.3	34.3	34.3	94	32.8	0	4	292	0.00	29.473 
15:15	34.1	34.1	34.1	93	32.3	1	3	315	0.00	29.482 
15:20	34.0	34.0	34.0	93	32.2	1	4	292	0.01	29.482 
15:25	33.8	33.8	33.8	93	32.0	1	2	292	0.00	29.482 
15:30	33.5	33.5	33.5	93	31.7	1	4	338	0.00	29.487 
15:35	33.4	33.4	33.4	93	31.6	1	3	338	0.00	29.487 
15:40	33.2	33.2	33.2	93	31.4	1	3	338	0.00	29.487 
15:45	33.1	33.1	33.1	93	31.3	0	2	292	0.00	29.491 
15:50	33.1	33.1	33.1	94	31.6	1	2	315	0.00	29.491 
15:55	32.9	32.9	32.9	94	31.4	1	3	292	0.00	29.491 
16:00	32.9	32.9	32.9	94	31.4	1	3	315	0.00	29.495 
16:05	32.9	32.9	32.9	94	31.4	1	2	0	0.00	29.495 
16:10	32.9	32.9	32.9	94	31.4	1	2	0	0.00	29.495 
16:15	32.9	32.9	32.9	94	31.4	1	3	338	0.00	29.504 
16:20	32.9	32.9	32.9	94	31.4	1	4	338	0.00	29.504 
16:25	32.9	32.9	32.9	94	31.4	1	3	338	0.00	29.504 
16:30	32.9	32.9	32.9	94	31.4	1	3	338	0.00	29.507 
16:35	32.9	32.9	32.9	94	31.4	1	3	315	0.00	29.507 
16:40	32.9	32.9	32.9	94	31.4	1	4	315	0.00	29.507 
16:45	32.9	32.9	32.9	94	31.4	1	4	315	0.01	29.512 
16:50	32.8	32.8	32.8	94	31.3	1	3	292	0.00	29.512 
16:55	32.9	32.9	32.9	94	31.4	1	3	338	0.00	29.512 
17:00	32.8	32.8	32.8	94	31.3	1	4	315	0.00	29.516 
17:05	32.8	32.8	32.8	94	31.3	1	5	338	0.00	29.516 
17:10	32.9	32.9	32.9	94	31.4	1	5	270	0.00	29.516 
17:15	32.9	32.9	32.9	94	31.4	1	4	292	0.00	29.520 
17:20	32.9	32.9	32.9	94	31.4	2	5	338	0.00	29.520 
17:25	32.9	32.9	32.9	94	31.4	2	5	292	0.00	29.520 
17:30	32.9	32.9	32.9	94	31.4	2	4	270	0.01	29.523 
17:35	32.9	32.9	32.9	94	31.4	1	3	315	0.00	29.523 
17:40	32.9	32.9	32.9	94	31.4	1	3	22	0.00	29.523 
17:45	33.1	33.1	33.1	94	31.6	2	7	315	0.00	29.523 
17:50	33.1	33.1	33.1	94	31.6	1	3	338	0.00	29.523 
17:55	33.1	33.1	33.1	94	31.6	1	2	315	0.00	29.523 
18:00	33.1	33.1	33.1	94	31.6	1	2	315	0.00	29.524 
18:05	33.1	33.1	33.1	94	31.6	1	3	315	0.01	29.524 
18:10	33.2	33.2	33.2	94	31.7	1	4	292	0.00	29.524 
18:15	33.2	33.2	33.2	94	31.7	2	4	292	0.00	29.529 
18:20	33.2	33.2	33.2	94	31.7	2	5	338	0.00	29.529 
18:25	33.2	33.2	33.2	93	31.4	1	4	292	0.00	29.529 
18:30	33.1	33.1	33.1	93	31.3	1	3	338	0.00	29.533 
18:35	33.1	33.1	33.1	93	31.3	1	3	338	0.00	29.533 
18:40	33.1	33.1	33.1	93	31.3	2	5	315	0.00	29.533 
18:45	33.2	33.2	33.2	93	31.4	2	3	315	0.01	29.536 
18:50	33.2	33.2	33.2	93	31.4	1	3	338	0.00	29.536 
18:55	33.2	33.2	33.2	93	31.4	2	3	338	0.00	29.536 
19:00	33.4	33.4	33.4	93	31.6	1	4	338	0.00	29.539 
19:05	33.4	33.4	33.4	93	31.6	1	3	22	0.00	29.539 
19:10	33.4	33.4	33.4	93	31.6	1	4	315	0.00	29.539 
19:15	33.5	33.5	33.5	93	31.7	1	3	292	0.00	29.539 
19:20	33.5	33.5	33.5	93	31.7	1	4	315	0.01	29.539 
19:25	33.5	33.5	33.5	93	31.7	1	3	0	0.00	29.539 
19:30	33.7	33.7	33.7	93	31.9	2	5	338	0.00	29.546 
19:35	33.7	33.7	33.7	92	31.6	1	5	0	0.00	29.546 
19:40	33.5	33.5	33.5	92	31.4	1	5	338	0.00	29.546 
19:45	33.5	33.5	33.5	92	31.4	1	3	338	0.00	29.549 
19:50	33.5	33.5	33.5	92	31.4	2	4	315	0.00	29.549 
19:55	33.5	33.5	33.5	92	31.4	1	5	315	0.01	29.549 
20:00	33.5	33.5	33.5	92	31.4	2	6	0	0.00	29.552 
20:05	33.5	33.5	33.5	93	31.7	2	5	315	0.00	29.552 
20:10	33.5	33.5	33.5	93	31.7	2	7	292	0.00	29.552 
20:15	33.5	33.5	33.5	93	31.7	1	3	338	0.00	29.560 
20:20	33.5	33.5	33.5	93	31.7	2	5	315	0.00	29.560 
20:25	33.5	33.5	33.5	93	31.7	2	4	338	0.01	29.560 
20:30	33.5	33.5	33.5	93	31.7	1	3	338	0.00	29.562 
20:35	33.5	33.5	33.5	93	31.7	1	4	338	0.00	29.562 
20:40	33.5	33.5	33.5	93	31.7	2	4	292	0.00	29.562 
20:45	33.5	33.5	33.5	93	31.7	2	6	315	0.00	29.567 
20:50	33.7	33.7	33.7	92	31.6	2	4	338	0.00	29.567 
20:55	33.7	33.7	33.7	92	31.6	2	6	338	0.01	29.567 
21:00	33.8	33.8	33.8	92	31.7	2	5	315	0.00	29.571 
21:05	33.8	33.8	33.8	92	31.7	1	3	315	0.00	29.571 
21:10	34.0	34.0	34.0	92	31.9	2	6	338	0.00	29.571 
21:15	34.0	34.0	34.0	92	31.9	1	3	315	0.00	29.580 
21:20	34.1	34.1	34.1	92	32.0	2	4	338	0.00	29.580 
21:25	34.1	34.1	34.1	92	32.0	2	5	315	0.00	29.580 
21:30	34.3	34.3	34.3	92	32.2	1	4	338	0.01	29.582 
21:35	34.3	34.3	34.3	91	32.0	2	5	315	0.00	29.582 
21:40	34.4	34.4	34.4	91	32.0	2	7	338	0.00	29.582 
21:45	34.4	34.4	34.4	91	32.0	2	6	338	0.00	29.585 
21:50	34.6	34.6	34.6	91	32.2	2	6	338	0.00	29.585 
21:55	34.6	34.6	34.6	91	32.2	2	5	338	0.00	29.585 
22:00	34.6	34.6	34.6	90	32.0	2	7	315	0.01	29.589 
22:05	34.7	34.7	34.7	90	32.1	2	9	338	0.00	29.589 
22:10	34.7	34.7	34.7	90	32.1	2	7	338	0.00	29.589 
22:15	34.7	34.7	34.7	90	32.1	2	7	338	0.00	29.594 
22:20	34.7	34.7	34.7	90	32.1	2	5	292	0.00	29.594 
22:25	34.7	34.7	34.7	89	31.8	2	9	292	0.00	29.594 
22:30	34.7	34.7	34.7	89	31.8	2	4	338	0.00	29.596 
22:35	34.7	34.7	34.7	90	32.1	2	6	292	0.01	29.596 
22:40	34.7	34.7	34.7	90	32.1	2	6	292	0.00	29.596 
22:45	34.7	34.7	34.7	89	31.8	2	5	0	0.00	29.599 
22:50	34.7	34.7	34.7	89	31.8	2	4	315	0.00	29.599 
22:55	34.7	34.7	34.7	89	31.8	1	5	338	0.00	29.599 
23:00	34.7	34.7	34.7	89	31.8	2	6	315	0.00	29.608 
23:05	34.7	34.7	34.7	89	31.8	2	4	292	0.00	29.608 
23:10	34.7	34.7	34.7	89	31.8	2	4	270	0.01	29.608 
23:15	34.7	34.7	34.7	89	31.8	2	5	315	0.00	29.611 
23:20	34.7	34.7	34.7	89	31.8	1	4	338	0.00	29.611 
23:25	34.9	34.9	34.9	89	32.0	2	9	292	0.00	29.611 
23:30	34.9	34.9	34.9	89	32.0	2	3	270	0.00	29.613 
23:35	34.9	34.9	34.9	89	32.0	1	4	338	0.00	29.613 
23:40	35.0	35.0	35.0	89	32.1	2	4	292	0.00	29.613 
23:45	35.0	35.0	35.0	89	32.1	1	5	338	0.00	29.614 
23:50	35.0	35.0	35.0	89	32.1	1	5	338	0.00	29.614 
23:55	35.0	35.0	35.0	89	32.1	2	5	292	0.00	29.614 

CoCoRaHS
IN-AL-39
A2 Web Hosting
Creative Commons License
GoDaddy
Look for:

loaded 2017-10-19 14:32:25 • last modified 2010-11-18 10:43:29
Privacy PolicyDisclaimer
• wx.awcolley.com is powered by PmWiki v.2002016 •
• all content (unless otherwise noted) © 2017 A W Colley